Carland, Michigan
Current Conditions -  °F | °C
As of 6:34 AM on Saturday 25 Oct 2014 (Local Time) from KRNP Reporting Station
Overcast Overcast  
Wind Chill: 53°   Ceiling: 3600
Heat Index: 53°   Visibility: 10mi
Dew Point: 49°   Wind: 7mph
Humidity: 85%   Direction: 230°SW
Pressure: 29.83"   Gusts: NA
Location:  43.0981°N, 84.3788°W
Report Text: KRNP 251034Z AUTO 23006KT 10SM BKN036 OVC044 12/09 A2983 RMK AO2 T01180093
Loading
Personal Weather Stations






























Interactive Weather Map New forecast layout! Learn more

10-Day Weather Forecast

Advertisements
Track Severe Weather on mobile